Time;durP1;ratioP1;P1;durP2;ratioP2;P2;SDS_P1;SDS_P2;PMS_P1;PMS_P2;Temp;Humidity;BMP_temperature;BMP_pressure;BME280_temperature;BME280_humidity;BME280_pressure;Samples;Min_cycle;Max_cycle;Signal;HPM_P1;HPM_P2
2023/04/15 00:00:41;;;;;;;;;;;15.50;65.40;;;;;;5035679;28;19919;-89
2023/04/15 00:03:07;;;;;;;;;;;15.50;65.50;;;;;;5019500;28;19909;-89
2023/04/15 00:06:18;;;;;;;;;;;15.50;65.50;;;;;;5018734;28;19944;-89
2023/04/15 00:08:58;;;;;;;;;;;15.50;65.50;;;;;;5034963;28;20153;-89
2023/04/15 00:11:29;;;;;;;;;;;15.50;65.70;;;;;;5020376;28;19916;-89
2023/04/15 00:14:05;;;;;;;;;;;15.50;65.70;;;;;;5020824;28;19909;-89
2023/04/15 00:16:30;;;;;;;;;;;15.50;65.70;;;;;;5020870;28;19913;-89
2023/04/15 00:19:05;;;;;;;;;;;15.50;65.90;;;;;;5020876;28;19909;-89
2023/04/15 00:21:34;;;;;;;;;;;15.40;66.00;;;;;;5021142;28;20000;-89
2023/04/15 00:24:09;;;;;;;;;;;15.40;66.00;;;;;;5020695;28;20195;-89
2023/04/15 00:26:53;;;;;;;;;;;15.40;66.00;;;;;;5021523;28;19909;-89
2023/04/15 00:29:31;;;;;;;;;;;15.40;66.00;;;;;;5036644;28;19905;-89
2023/04/15 00:31:56;;;;;;;;;;;15.40;66.10;;;;;;5020474;28;19939;-89
2023/04/15 00:34:28;;;;;;;;;;;15.40;66.20;;;;;;5035223;28;20288;-89
2023/04/15 00:36:57;;;;;;;;;;;15.40;66.20;;;;;;5019104;28;19913;-90
2023/04/15 00:39:34;;;;;;;;;;;15.40;66.30;;;;;;5034970;28;20311;-89
2023/04/15 00:42:06;;;;;;;;;;;15.30;66.30;;;;;;5018387;28;19910;-89
2023/04/15 00:44:46;;;;;;;;;;;15.30;66.40;;;;;;5016826;28;20127;-89
2023/04/15 00:47:30;;;;;;;;;;;15.30;66.20;;;;;;5019573;28;19909;-89
2023/04/15 00:49:56;;;;;;;;;;;15.30;66.20;;;;;;5034155;28;19909;-89
2023/04/15 00:52:35;;;;;;;;;;;15.30;66.20;;;;;;5034171;28;20026;-89
2023/04/15 00:57:47;;;;;;;;;;;15.20;66.30;;;;;;5034876;28;20295;-89
2023/04/15 01:00:31;;;;;;;;;;;15.20;66.30;;;;;;5018521;28;19949;-89
2023/04/15 01:03:08;;;;;;;;;;;15.20;66.40;;;;;;5018363;28;20501;-89
2023/04/15 01:05:43;;;;;;;;;;;15.20;66.40;;;;;;5019786;28;20168;-89
2023/04/15 01:08:31;;;;;;;;;;;15.20;66.40;;;;;;5019458;28;19909;-89
2023/04/15 01:11:17;;;;;;;;;;;15.20;66.50;;;;;;5036465;28;19929;-89
2023/04/15 01:16:41;;;;;;;;;;;15.20;66.60;;;;;;4993509;28;20257;-89
2023/04/15 01:19:18;;;;;;;;;;;15.20;66.70;;;;;;4978020;28;19921;-89
2023/04/15 01:21:44;;;;;;;;;;;15.20;66.70;;;;;;4969890;28;19910;-89
2023/04/15 01:24:10;;;;;;;;;;;15.10;66.60;;;;;;4975734;28;19910;-89
2023/04/15 01:26:42;;;;;;;;;;;15.10;66.60;;;;;;4990015;28;20047;-89
2023/04/15 01:29:26;;;;;;;;;;;15.10;66.70;;;;;;4974184;28;19910;-89
2023/04/15 01:31:52;;;;;;;;;;;15.10;66.80;;;;;;4992745;28;19909;-89
2023/04/15 01:37:31;;;;;;;;;;;15.10;66.90;;;;;;4992705;28;20358;-89
2023/04/15 01:40:09;;;;;;;;;;;15.10;66.90;;;;;;4976191;28;19988;-89
2023/04/15 01:42:46;;;;;;;;;;;15.10;66.90;;;;;;4976462;28;19986;-89
2023/04/15 01:45:30;;;;;;;;;;;15.00;66.80;;;;;;4977479;28;19982;-89
2023/04/15 01:48:08;;;;;;;;;;;15.00;66.90;;;;;;5028224;28;19986;-89
2023/04/15 01:50:49;;;;;;;;;;;15.00;67.00;;;;;;5034939;28;19917;-89
2023/04/15 01:53:30;;;;;;;;;;;15.00;67.00;;;;;;5018639;28;19909;-89
2023/04/15 01:55:56;;;;;;;;;;;15.00;67.00;;;;;;5034309;28;19921;-90
2023/04/15 01:58:21;;;;;;;;;;;15.00;67.10;;;;;;5036038;28;19910;-89
2023/04/15 02:00:47;;;;;;;;;;;15.00;67.10;;;;;;5018671;28;19947;-89
2023/04/15 02:03:58;;;;;;;;;;;15.00;67.20;;;;;;5034132;28;19909;-90
2023/04/15 02:06:11;;;;;;;;;;;14.90;67.20;;;;;;5030344;28;19917;-89
2023/04/15 02:08:58;;;;;;;;;;;14.90;67.30;;;;;;5023302;28;19980;-90
2023/04/15 02:11:52;;;;;;;;;;;14.90;67.20;;;;;;5031930;28;19928;-90
2023/04/15 02:14:26;;;;;;;;;;;14.90;67.30;;;;;;5016378;28;19941;-89
2023/04/15 02:16:52;;;;;;;;;;;14.90;67.30;;;;;;5016505;28;20434;-89
2023/04/15 02:20:22;;;;;;;;;;;14.90;67.30;;;;;;5019899;28;20007;-89
2023/04/15 02:25:31;;;;;;;;;;;14.80;67.40;;;;;;5037845;28;19931;-89
2023/04/15 02:28:08;;;;;;;;;;;14.80;67.40;;;;;;5021201;28;20120;-90
2023/04/15 02:30:37;;;;;;;;;;;14.80;67.50;;;;;;5021524;28;19967;-89
2023/04/15 02:33:03;;;;;;;;;;;14.80;67.50;;;;;;5022888;28;19940;-89
2023/04/15 02:35:44;;;;;;;;;;;14.80;67.50;;;;;;5021975;28;19967;-89
2023/04/15 02:38:25;;;;;;;;;;;14.80;67.50;;;;;;5021833;28;20251;-90
2023/04/15 02:40:50;;;;;;;;;;;14.80;67.50;;;;;;5021434;28;20255;-89
2023/04/15 02:43:16;;;;;;;;;;;14.80;67.50;;;;;;5021593;28;19941;-89
2023/04/15 02:46:00;;;;;;;;;;;14.80;68.10;;;;;;5021344;28;20233;-90
2023/04/15 02:48:32;;;;;;;;;;;14.80;67.50;;;;;;5019209;28;20313;-89
2023/04/15 02:54:10;;;;;;;;;;;14.70;67.40;;;;;;5036280;28;20313;-89
2023/04/15 02:56:39;;;;;;;;;;;14.70;67.50;;;;;;5037143;28;19921;-89
2023/04/15 02:59:13;;;;;;;;;;;14.70;67.50;;;;;;5036944;28;20001;-89
2023/04/15 03:01:39;;;;;;;;;;;14.70;67.60;;;;;;5037147;28;19909;-90
2023/04/15 03:06:55;;;;;;;;;;;14.70;67.60;;;;;;5036208;28;19975;-90
2023/04/15 03:09:21;;;;;;;;;;;14.70;67.60;;;;;;5020375;28;19974;-90
2023/04/15 03:12:02;;;;;;;;;;;14.70;67.70;;;;;;5020470;28;19925;-90
2023/04/15 03:14:28;;;;;;;;;;;14.70;67.60;;;;;;5020270;28;19921;-90
2023/04/15 03:17:12;;;;;;;;;;;14.70;67.80;;;;;;5037277;28;19921;-90
2023/04/15 03:20:16;;;;;;;;;;;14.60;67.60;;;;;;5021619;28;20186;-90
2023/04/15 03:22:47;;;;;;;;;;;14.60;67.70;;;;;;5011633;28;20178;-90
2023/04/15 03:25:19;;;;;;;;;;;14.60;67.80;;;;;;5021346;28;19913;-89
2023/04/15 03:28:00;;;;;;;;;;;14.60;67.80;;;;;;5020796;28;19917;-90
2023/04/15 03:30:50;;;;;;;;;;;14.60;67.80;;;;;;5020710;28;20377;-90
2023/04/15 03:33:37;;;;;;;;;;;14.60;67.80;;;;;;5037039;28;19913;-90
2023/04/15 03:36:09;;;;;;;;;;;14.60;67.90;;;;;;5020312;28;19913;-90
2023/04/15 03:38:38;;;;;;;;;;;14.50;67.90;;;;;;5015719;28;20003;-90
2023/04/15 03:41:22;;;;;;;;;;;14.50;67.90;;;;;;5019576;28;19909;-90
2023/04/15 03:44:06;;;;;;;;;;;14.50;67.90;;;;;;5035056;28;20524;-89
2023/04/15 03:46:53;;;;;;;;;;;14.50;67.90;;;;;;5018853;28;20251;-90
2023/04/15 03:49:24;;;;;;;;;;;14.50;68.00;;;;;;5018011;28;20287;-90
2023/04/15 03:51:50;;;;;;;;;;;14.50;68.10;;;;;;5018762;28;19917;-90
2023/04/15 03:54:18;;;;;;;;;;;14.50;68.10;;;;;;5018421;28;20176;-90
2023/04/15 03:57:14;;;;;;;;;;;14.50;68.10;;;;;;5018006;28;20199;-89
2023/04/15 04:03:06;;;;;;;;;;;14.40;68.00;;;;;;4956199;29;20427;-90
2023/04/15 04:08:20;;;;;;;;;;;14.40;68.10;;;;;;4918035;29;19994;-90
2023/04/15 04:10:46;;;;;;;;;;;14.40;68.20;;;;;;4916729;29;19921;-90
2023/04/15 04:13:26;;;;;;;;;;;14.40;68.20;;;;;;4917314;29;19915;-90
2023/04/15 04:15:51;;;;;;;;;;;14.40;68.30;;;;;;4963533;28;19925;-90
2023/04/15 04:18:23;;;;;;;;;;;14.40;68.30;;;;;;4958487;28;19911;-90
2023/04/15 04:24:03;;;;;;;;;;;14.30;68.20;;;;;;4974400;28;19921;-90
2023/04/15 04:26:28;;;;;;;;;;;14.30;68.30;;;;;;4975093;28;19921;-90
2023/04/15 04:29:15;;;;;;;;;;;14.30;68.30;;;;;;4974511;28;19910;-90
2023/04/15 04:31:56;;;;;;;;;;;14.30;68.30;;;;;;4994066;28;20190;-90
2023/04/15 04:34:25;;;;;;;;;;;14.30;68.30;;;;;;4994147;28;19914;-90
2023/04/15 04:36:53;;;;;;;;;;;14.30;68.30;;;;;;5008941;28;20004;-90
2023/04/15 04:39:31;;;;;;;;;;;14.30;68.30;;;;;;5016437;28;19909;-90
2023/04/15 04:42:05;;;;;;;;;;;14.30;68.40;;;;;;5016329;28;19987;-90
2023/04/15 04:44:40;;;;;;;;;;;14.30;68.40;;;;;;5015218;28;19962;-90
2023/04/15 04:47:12;;;;;;;;;;;14.20;68.40;;;;;;5014126;28;19953;-90
2023/04/15 04:50:06;;;;;;;;;;;14.20;68.40;;;;;;5015366;28;20258;-91
2023/04/15 04:52:44;;;;;;;;;;;14.20;68.40;;;;;;5016414;28;19963;-90
2023/04/15 04:55:30;;;;;;;;;;;14.20;68.50;;;;;;5015581;28;19971;-90
2023/04/15 04:57:56;;;;;;;;;;;14.20;68.30;;;;;;5031590;28;19987;-90
2023/04/15 05:00:21;;;;;;;;;;;14.20;68.20;;;;;;5015991;28;20542;-90
2023/04/15 05:02:57;;;;;;;;;;;14.20;68.10;;;;;;5015887;28;20429;-90
2023/04/15 05:05:41;;;;;;;;;;;14.20;68.20;;;;;;5017130;28;20199;-90
2023/04/15 05:08:10;;;;;;;;;;;14.20;68.10;;;;;;5018119;28;19921;-90
2023/04/15 05:10:55;;;;;;;;;;;14.20;68.00;;;;;;5018170;28;19916;-90
2023/04/15 05:13:26;;;;;;;;;;;14.20;68.00;;;;;;5017609;28;19909;-90
2023/04/15 05:16:28;;;;;;;;;;;14.20;67.90;;;;;;5032750;28;19968;-90
2023/04/15 05:19:03;;;;;;;;;;;14.20;67.80;;;;;;5007706;28;19909;-90
2023/04/15 05:21:43;;;;;;;;;;;14.20;67.70;;;;;;5014151;28;19909;-90
2023/04/15 05:24:12;;;;;;;;;;;14.30;67.60;;;;;;5014610;28;19909;-90
2023/04/15 05:26:41;;;;;;;;;;;14.30;67.50;;;;;;5013538;28;19932;-90
2023/04/15 05:29:10;;;;;;;;;;;14.30;67.50;;;;;;5008917;28;20283;-90
2023/04/15 05:31:39;;;;;;;;;;;14.30;67.30;;;;;;5013454;28;19909;-90
2023/04/15 05:34:05;;;;;;;;;;;14.30;67.30;;;;;;5015001;28;20330;-90
2023/04/15 05:36:31;;;;;;;;;;;14.30;67.30;;;;;;5030716;28;19923;-90
2023/04/15 05:39:09;;;;;;;;;;;14.30;67.10;;;;;;5011010;28;19909;-90
2023/04/15 05:44:35;;;;;;;;;;;14.30;66.90;;;;;;4990750;28;20175;-90
2023/04/15 05:47:04;;;;;;;;;;;14.30;66.80;;;;;;4973846;28;19918;-90
2023/04/15 05:49:49;;;;;;;;;;;14.30;66.80;;;;;;4972871;28;20316;-90
2023/04/15 05:52:26;;;;;;;;;;;14.30;66.60;;;;;;4989460;28;19921;-90
2023/04/15 05:55:43;;;;;;;;;;;14.30;66.60;;;;;;4973870;28;19910;-90
2023/04/15 05:58:02;;;;;;;;;;;14.30;66.50;;;;;;4988153;28;19914;-90
2023/04/15 06:00:31;;;;;;;;;;;14.30;66.30;;;;;;4952186;29;19911;-90
2023/04/15 06:03:02;;;;;;;;;;;14.40;66.20;;;;;;4961845;28;20147;-90
2023/04/15 06:05:53;;;;;;;;;;;14.40;66.10;;;;;;4972352;28;20416;-90
2023/04/15 06:08:18;;;;;;;;;;;14.40;65.80;;;;;;4981819;28;19921;-90
2023/04/15 06:11:08;;;;;;;;;;;14.40;65.60;;;;;;4975391;28;20207;-90
2023/04/15 06:13:34;;;;;;;;;;;14.50;65.50;;;;;;4979386;28;19914;-90
2023/04/15 06:16:18;;;;;;;;;;;14.50;65.30;;;;;;4969959;28;19914;-90
2023/04/15 06:18:46;;;;;;;;;;;14.50;65.00;;;;;;4975064;28;19933;-89
2023/04/15 06:24:07;;;;;;;;;;;14.50;64.60;;;;;;4955478;28;19909;-90
2023/04/15 06:26:35;;;;;;;;;;;14.60;64.40;;;;;;4990512;28;20323;-90
2023/04/15 06:29:01;;;;;;;;;;;14.60;64.30;;;;;;4971268;28;19916;-90
2023/04/15 06:31:36;;;;;;;;;;;14.60;64.00;;;;;;4979895;28;19909;-90
2023/04/15 06:34:05;;;;;;;;;;;14.70;63.90;;;;;;4992879;28;19909;-90
2023/04/15 06:36:31;;;;;;;;;;;14.70;63.60;;;;;;5021758;28;19926;-90
2023/04/15 06:42:28;;;;;;;;;;;14.80;62.90;;;;;;4995486;28;19932;-90
2023/04/15 06:44:56;;;;;;;;;;;15.00;62.50;;;;;;4936367;29;19918;-90
2023/04/15 06:47:25;;;;;;;;;;;15.10;61.80;;;;;;4994056;28;20231;-90
2023/04/15 06:49:56;;;;;;;;;;;15.20;61.10;;;;;;4992883;28;20091;-90
2023/04/15 06:52:21;;;;;;;;;;;15.40;60.40;;;;;;4987716;28;19918;-90
2023/04/15 06:54:47;;;;;;;;;;;15.50;59.80;;;;;;4987816;28;20209;-90
2023/04/15 06:57:15;;;;;;;;;;;15.60;59.50;;;;;;4988136;28;19936;-90
2023/04/15 07:00:20;;;;;;;;;;;15.70;59.30;;;;;;4993307;28;20004;-90
2023/04/15 07:05:48;;;;;;;;;;;15.60;59.10;;;;;;4993648;28;19957;-90
2023/04/15 07:08:51;;;;;;;;;;;15.60;59.20;;;;;;4976802;28;19910;-90
2023/04/15 07:11:16;;;;;;;;;;;15.50;59.40;;;;;;4980705;28;20475;-90
2023/04/15 07:13:47;;;;;;;;;;;15.50;59.70;;;;;;4981184;28;20005;-90
2023/04/15 07:19:16;;;;;;;;;;;15.40;60.40;;;;;;4993289;28;20321;-90
2023/04/15 07:21:41;;;;;;;;;;;15.40;61.00;;;;;;4975660;28;19910;-90
2023/04/15 07:24:25;;;;;;;;;;;15.40;61.20;;;;;;4976008;28;20165;-90
2023/04/15 07:27:09;;;;;;;;;;;15.40;61.70;;;;;;4975441;28;19920;-90
2023/04/15 07:29:35;;;;;;;;;;;15.40;61.90;;;;;;4982480;28;19921;-89
2023/04/15 07:32:03;;;;;;;;;;;15.40;62.10;;;;;;4973593;28;19914;-89
2023/04/15 07:34:49;;;;;;;;;;;15.40;62.10;;;;;;4973202;28;19910;-89
2023/04/15 07:37:24;;;;;;;;;;;15.40;62.20;;;;;;4975026;28;19961;-89
2023/04/15 07:39:49;;;;;;;;;;;15.40;62.40;;;;;;5003153;28;20369;-89
2023/04/15 07:42:24;;;;;;;;;;;15.40;62.60;;;;;;5015295;28;19921;-89
2023/04/15 07:44:52;;;;;;;;;;;15.40;62.70;;;;;;5031182;28;19909;-89
2023/04/15 07:47:21;;;;;;;;;;;15.40;63.10;;;;;;5013786;28;20187;-88
2023/04/15 07:49:50;;;;;;;;;;;15.50;63.40;;;;;;5014941;28;19909;-89
2023/04/15 07:52:15;;;;;;;;;;;15.50;63.10;;;;;;5013841;28;19910;-89
2023/04/15 07:54:41;;;;;;;;;;;15.50;63.00;;;;;;5011987;28;19909;-89
2023/04/15 07:57:07;;;;;;;;;;;15.60;62.90;;;;;;5013785;28;19975;-89
2023/04/15 07:59:37;;;;;;;;;;;15.60;62.60;;;;;;5014375;28;19944;-88
2023/04/15 08:02:12;;;;;;;;;;;15.70;62.50;;;;;;5014023;28;20074;-88
2023/04/15 08:04:38;;;;;;;;;;;15.80;62.10;;;;;;5014056;28;19909;-88
2023/04/15 08:07:06;;;;;;;;;;;15.80;62.10;;;;;;5015320;28;20315;-89
2023/04/15 08:09:32;;;;;;;;;;;15.90;61.90;;;;;;5013339;28;20238;-88
2023/04/15 08:12:00;;;;;;;;;;;16.00;61.80;;;;;;5014163;28;20093;-88
2023/04/15 08:14:26;;;;;;;;;;;16.10;61.00;;;;;;5012163;28;19913;-89
2023/04/15 08:16:58;;;;;;;;;;;16.20;60.20;;;;;;5014078;28;19986;-89
2023/04/15 08:19:24;;;;;;;;;;;16.30;59.70;;;;;;5031478;28;20050;-89
2023/04/15 08:21:53;;;;;;;;;;;16.50;59.30;;;;;;5011579;28;20219;-88
2023/04/15 08:24:21;;;;;;;;;;;16.60;58.80;;;;;;5014626;28;20041;-88
2023/04/15 08:26:50;;;;;;;;;;;16.80;58.30;;;;;;5030848;28;19917;-88
2023/04/15 08:29:15;;;;;;;;;;;17.10;57.50;;;;;;5014388;28;20287;-89
2023/04/15 08:31:47;;;;;;;;;;;17.30;57.00;;;;;;5014908;28;19913;-89
2023/04/15 08:34:19;;;;;;;;;;;17.70;56.60;;;;;;5015265;28;19920;-88
2023/04/15 08:36:45;;;;;;;;;;;17.90;55.60;;;;;;5014583;28;20243;-88
2023/04/15 08:39:49;;;;;;;;;;;18.00;55.20;;;;;;5014046;28;19923;-88
2023/04/15 08:42:21;;;;;;;;;;;17.90;55.00;;;;;;5000005;28;19979;-88
2023/04/15 08:44:54;;;;;;;;;;;17.80;55.10;;;;;;5032094;28;20003;-88
2023/04/15 08:47:21;;;;;;;;;;;17.80;55.00;;;;;;5033162;28;19920;-88
2023/04/15 08:49:52;;;;;;;;;;;17.80;55.00;;;;;;5014730;28;19915;-88
2023/04/15 08:52:18;;;;;;;;;;;17.90;55.10;;;;;;5014143;28;19909;-88
2023/04/15 08:54:44;;;;;;;;;;;17.90;54.80;;;;;;5011428;28;20303;-88
2023/04/15 08:57:23;;;;;;;;;;;18.40;54.50;;;;;;5011733;28;20280;-88
2023/04/15 08:59:51;;;;;;;;;;;18.90;53.60;;;;;;5012161;28;19909;-88
2023/04/15 09:02:17;;;;;;;;;;;19.50;52.70;;;;;;5011956;28;20134;-88
2023/04/15 09:04:43;;;;;;;;;;;19.50;52.40;;;;;;5011110;28;20183;-88
2023/04/15 09:07:08;;;;;;;;;;;19.00;52.30;;;;;;5013618;28;19909;-88
2023/04/15 09:09:36;;;;;;;;;;;18.60;52.80;;;;;;5021083;28;20293;-88
2023/04/15 09:12:04;;;;;;;;;;;18.30;53.30;;;;;;5031423;28;19953;-88
2023/04/15 09:14:38;;;;;;;;;;;17.90;53.80;;;;;;5013112;28;19999;-89
2023/04/15 09:17:10;;;;;;;;;;;17.60;54.30;;;;;;5013550;28;19924;-89
2023/04/15 09:19:36;;;;;;;;;;;17.50;54.70;;;;;;5011437;28;20082;-89
2023/04/15 09:24:52;;;;;;;;;;;17.20;55.40;;;;;;5029693;28;19920;-89
2023/04/15 09:27:23;;;;;;;;;;;17.00;55.70;;;;;;5013003;28;20178;-89
2023/04/15 09:29:55;;;;;;;;;;;17.00;56.10;;;;;;5012430;28;19913;-88
2023/04/15 09:32:33;;;;;;;;;;;16.90;56.40;;;;;;5018079;28;19909;-89
2023/04/15 09:35:12;;;;;;;;;;;16.80;56.70;;;;;;5012576;28;19921;-90
2023/04/15 09:40:40;;;;;;;;;;;16.60;57.00;;;;;;4996515;28;19916;-89
2023/04/15 09:43:07;;;;;;;;;;;16.60;57.20;;;;;;5012629;28;19917;-88
2023/04/15 09:45:33;;;;;;;;;;;16.50;57.20;;;;;;5013792;28;19909;-89
2023/04/15 09:48:13;;;;;;;;;;;16.50;57.30;;;;;;5013132;28;19916;-89
2023/04/15 09:50:40;;;;;;;;;;;16.50;57.50;;;;;;5011326;28;20024;-88
2023/04/15 09:53:08;;;;;;;;;;;16.50;57.50;;;;;;5010714;28;19987;-89
2023/04/15 09:55:33;;;;;;;;;;;16.40;57.60;;;;;;5013049;28;20168;-90
2023/04/15 09:57:59;;;;;;;;;;;16.40;57.70;;;;;;5010844;28;20271;-88
2023/04/15 10:00:24;;;;;;;;;;;16.40;57.90;;;;;;5011840;28;19916;-88
2023/04/15 10:02:50;;;;;;;;;;;16.30;57.90;;;;;;5012317;28;19952;-89
2023/04/15 10:05:16;;;;;;;;;;;16.30;58.10;;;;;;5013207;28;19917;-89
2023/04/15 10:07:42;;;;;;;;;;;16.30;58.20;;;;;;5014778;28;19909;-89
2023/04/15 10:10:09;;;;;;;;;;;16.30;58.20;;;;;;5010653;28;19948;-89
2023/04/15 10:12:39;;;;;;;;;;;16.30;58.30;;;;;;5009279;28;20249;-89
2023/04/15 10:15:06;;;;;;;;;;;16.30;58.30;;;;;;5009832;28;19971;-89
2023/04/15 10:17:35;;;;;;;;;;;16.20;58.40;;;;;;5008726;28;20195;-89
2023/04/15 10:20:03;;;;;;;;;;;16.20;58.50;;;;;;5007621;28;19914;-89
2023/04/15 10:22:29;;;;;;;;;;;16.20;58.60;;;;;;5008024;28;20091;-89
2023/04/15 10:24:55;;;;;;;;;;;16.20;58.70;;;;;;5006677;28;20164;-90
2023/04/15 10:27:21;;;;;;;;;;;16.20;58.70;;;;;;5006033;28;20383;-90
2023/04/15 10:29:47;;;;;;;;;;;16.20;58.70;;;;;;5005042;28;20008;-89
2023/04/15 10:32:13;;;;;;;;;;;16.20;58.80;;;;;;5003608;28;19921;-89
2023/04/15 10:34:41;;;;;;;;;;;16.20;58.90;;;;;;5005186;28;19909;-89
2023/04/15 10:37:08;;;;;;;;;;;16.20;59.00;;;;;;5005768;28;19920;-89
2023/04/15 10:39:41;;;;;;;;;;;16.30;59.00;;;;;;5011888;28;19909;-88
2023/04/15 10:42:07;;;;;;;;;;;16.20;58.90;;;;;;5010247;28;19995;-88
2023/04/15 10:44:33;;;;;;;;;;;16.30;59.00;;;;;;5013122;28;19913;-93
2023/04/15 10:46:59;;;;;;;;;;;16.30;58.90;;;;;;5012387;28;20465;-89
2023/04/15 10:49:25;;;;;;;;;;;16.20;59.10;;;;;;5009769;28;19913;-89
2023/04/15 10:51:51;;;;;;;;;;;16.20;59.20;;;;;;5010068;28;19910;-89
2023/04/15 10:54:23;;;;;;;;;;;16.20;59.30;;;;;;5009298;28;20339;-89
2023/04/15 10:57:04;;;;;;;;;;;16.10;59.40;;;;;;5008069;28;19913;-88
2023/04/15 10:59:31;;;;;;;;;;;16.10;59.60;;;;;;5010150;28;20246;-88
2023/04/15 11:01:59;;;;;;;;;;;16.00;59.70;;;;;;5010165;28;20276;-89
2023/04/15 11:04:44;;;;;;;;;;;16.00;59.80;;;;;;5011114;28;20016;-89
2023/04/15 11:07:10;;;;;;;;;;;16.00;60.00;;;;;;4994168;28;19909;-88
2023/04/15 11:09:36;;;;;;;;;;;15.90;60.10;;;;;;5011334;28;20183;-89
2023/04/15 11:12:09;;;;;;;;;;;15.90;60.30;;;;;;5010394;28;20185;-90
2023/04/15 11:14:42;;;;;;;;;;;15.90;60.40;;;;;;5009868;28;19917;-88
2023/04/15 11:17:07;;;;;;;;;;;15.90;60.60;;;;;;5011664;28;19913;-89
2023/04/15 11:19:37;;;;;;;;;;;15.80;60.70;;;;;;5010610;28;19910;-89
2023/04/15 11:22:15;;;;;;;;;;;15.90;60.90;;;;;;5012029;28;20283;-89
2023/04/15 11:24:49;;;;;;;;;;;15.80;61.10;;;;;;5009381;28;19910;-89
2023/04/15 11:27:24;;;;;;;;;;;15.80;61.20;;;;;;5014275;28;20386;-89
2023/04/15 11:29:50;;;;;;;;;;;15.80;61.30;;;;;;5011997;28;20260;-89
2023/04/15 11:32:15;;;;;;;;;;;15.80;61.50;;;;;;5011239;28;19921;-89
2023/04/15 11:34:44;;;;;;;;;;;15.70;61.60;;;;;;5008681;28;20012;-89
2023/04/15 11:37:10;;;;;;;;;;;15.70;61.80;;;;;;5006135;28;19917;-89
2023/04/15 11:39:36;;;;;;;;;;;15.70;61.90;;;;;;5008366;28;20291;-89
2023/04/15 11:42:01;;;;;;;;;;;15.70;62.00;;;;;;5008107;28;19913;-89
2023/04/15 11:44:27;;;;;;;;;;;15.70;62.20;;;;;;5009076;28;19983;-89
2023/04/15 11:46:53;;;;;;;;;;;15.70;62.30;;;;;;5010687;28;20531;-89
2023/04/15 11:49:30;;;;;;;;;;;15.70;62.40;;;;;;5009447;28;20270;-89
2023/04/15 11:51:55;;;;;;;;;;;15.60;62.50;;;;;;5011047;28;19917;-89
2023/04/15 11:54:21;;;;;;;;;;;15.60;62.60;;;;;;5010898;28;19910;-89
2023/04/15 11:56:50;;;;;;;;;;;15.60;62.70;;;;;;5009870;28;19913;-89
2023/04/15 11:59:16;;;;;;;;;;;15.60;62.80;;;;;;4994949;28;20287;-89
2023/04/15 12:01:42;;;;;;;;;;;15.60;63.00;;;;;;5007792;28;19948;-90
2023/04/15 12:04:16;;;;;;;;;;;15.60;63.10;;;;;;5009545;28;20094;-89
2023/04/15 12:06:42;;;;;;;;;;;15.60;63.10;;;;;;5008321;28;19917;-89
2023/04/15 12:09:18;;;;;;;;;;;15.60;63.30;;;;;;5008561;28;20207;-89
2023/04/15 12:11:45;;;;;;;;;;;15.60;63.40;;;;;;5008261;28;19921;-88
2023/04/15 12:14:11;;;;;;;;;;;15.60;63.50;;;;;;5009302;28;19910;-88
2023/04/15 12:16:38;;;;;;;;;;;15.60;63.50;;;;;;5007181;28;19914;-88
2023/04/15 12:19:06;;;;;;;;;;;15.50;63.50;;;;;;5010498;28;20193;-88
2023/04/15 12:21:36;;;;;;;;;;;15.50;64.30;;;;;;5010786;28;19920;-88
2023/04/15 12:24:03;;;;;;;;;;;15.50;63.70;;;;;;5007229;28;19909;-89
2023/04/15 12:26:49;;;;;;;;;;;15.50;63.90;;;;;;5010092;28;19944;-89
2023/04/15 12:29:15;;;;;;;;;;;15.50;64.00;;;;;;5007665;28;20070;-88
2023/04/15 12:31:54;;;;;;;;;;;15.50;64.20;;;;;;5008015;28;19909;-89
2023/04/15 12:34:30;;;;;;;;;;;15.50;64.30;;;;;;5007505;28;20008;-89
2023/04/15 12:36:56;;;;;;;;;;;15.50;64.40;;;;;;5006431;28;19913;-89
2023/04/15 12:39:26;;;;;;;;;;;15.50;64.30;;;;;;5007943;28;20058;-89
2023/04/15 12:41:52;;;;;;;;;;;15.50;64.40;;;;;;5009512;28;19921;-89
2023/04/15 12:44:17;;;;;;;;;;;15.50;64.50;;;;;;5008899;28;19991;-89
2023/04/15 12:46:46;;;;;;;;;;;15.60;64.50;;;;;;5012742;28;19909;-89
2023/04/15 12:49:13;;;;;;;;;;;15.50;64.50;;;;;;5010374;28;19913;-89
2023/04/15 12:51:39;;;;;;;;;;;15.50;64.60;;;;;;5009245;28;20165;-89
2023/04/15 12:54:05;;;;;;;;;;;15.50;64.70;;;;;;5007804;28;20260;-89
2023/04/15 12:56:30;;;;;;;;;;;15.50;64.70;;;;;;5007114;28;19913;-88
2023/04/15 12:58:56;;;;;;;;;;;15.50;64.80;;;;;;5008432;28;20174;-88
2023/04/15 13:01:21;;;;;;;;;;;15.50;64.80;;;;;;5006383;28;19921;-89
2023/04/15 13:03:47;;;;;;;;;;;15.50;64.80;;;;;;5006247;28;20162;-88
2023/04/15 13:06:13;;;;;;;;;;;15.50;64.70;;;;;;4988816;28;20017;-88
2023/04/15 13:08:38;;;;;;;;;;;15.50;64.70;;;;;;5007750;28;19909;-89
2023/04/15 13:11:04;;;;;;;;;;;15.50;64.80;;;;;;5006451;28;19914;-89
2023/04/15 13:13:30;;;;;;;;;;;15.50;65.00;;;;;;5007213;28;20246;-89
2023/04/15 13:15:56;;;;;;;;;;;15.50;65.10;;;;;;5005629;28;19924;-89
2023/04/15 13:18:22;;;;;;;;;;;15.50;65.30;;;;;;5006974;28;20184;-89
2023/04/15 13:20:48;;;;;;;;;;;15.50;65.30;;;;;;5008941;28;19960;-89
2023/04/15 13:23:14;;;;;;;;;;;15.50;65.40;;;;;;5007165;28;19917;-89
2023/04/15 13:25:40;;;;;;;;;;;15.50;65.50;;;;;;5006476;28;19909;-89
2023/04/15 13:28:05;;;;;;;;;;;15.50;65.70;;;;;;5009664;28;19913;-89
2023/04/15 13:30:31;;;;;;;;;;;15.50;65.70;;;;;;5008716;28;19910;-89
2023/04/15 13:32:57;;;;;;;;;;;15.50;65.80;;;;;;5009049;28;19909;-89
2023/04/15 13:35:22;;;;;;;;;;;15.60;65.90;;;;;;5007799;28;20023;-89
2023/04/15 13:37:48;;;;;;;;;;;15.50;65.80;;;;;;5006641;28;19914;-89
2023/04/15 13:40:13;;;;;;;;;;;15.50;65.80;;;;;;5007454;28;20291;-90
2023/04/15 13:42:39;;;;;;;;;;;15.50;66.00;;;;;;5005106;28;19918;-89
2023/04/15 13:45:06;;;;;;;;;;;15.50;65.90;;;;;;5007797;28;19948;-90
2023/04/15 13:47:31;;;;;;;;;;;15.50;66.00;;;;;;5006489;28;20137;-90
2023/04/15 13:49:57;;;;;;;;;;;15.50;66.70;;;;;;5006987;28;19917;-89
2023/04/15 13:52:23;;;;;;;;;;;15.50;66.20;;;;;;5009124;28;20294;-89
2023/04/15 13:54:48;;;;;;;;;;;15.50;66.20;;;;;;5007968;28;19920;-89
2023/04/15 13:57:14;;;;;;;;;;;15.50;66.20;;;;;;5007012;28;19914;-90
2023/04/15 13:59:40;;;;;;;;;;;15.50;66.20;;;;;;5007005;28;20076;-90
2023/04/15 14:02:05;;;;;;;;;;;15.50;66.30;;;;;;5007513;28;20012;-89
2023/04/15 14:04:31;;;;;;;;;;;15.50;66.40;;;;;;5007445;28;19919;-89
2023/04/15 14:06:57;;;;;;;;;;;15.50;66.40;;;;;;5006490;28;19932;-89
2023/04/15 14:09:23;;;;;;;;;;;15.50;66.50;;;;;;5007648;28;20042;-89
2023/04/15 14:11:48;;;;;;;;;;;15.50;66.50;;;;;;5012853;28;19971;-89
2023/04/15 14:14:14;;;;;;;;;;;15.50;66.40;;;;;;5012203;28;19914;-89
2023/04/15 14:16:40;;;;;;;;;;;15.50;66.50;;;;;;5007617;28;19914;-89
2023/04/15 14:19:05;;;;;;;;;;;15.50;66.70;;;;;;5009367;28;19909;-89
2023/04/15 14:21:31;;;;;;;;;;;15.50;67.50;;;;;;5010410;28;20016;-89
2023/04/15 14:23:57;;;;;;;;;;;15.50;67.00;;;;;;5008374;28;19905;-89
2023/04/15 14:26:22;;;;;;;;;;;15.50;67.00;;;;;;5006750;28;20536;-89
2023/04/15 14:28:48;;;;;;;;;;;15.50;67.10;;;;;;5005720;28;19917;-89
2023/04/15 14:31:14;;;;;;;;;;;15.40;67.10;;;;;;5004513;28;19910;-89
2023/04/15 14:33:40;;;;;;;;;;;15.40;67.20;;;;;;5005015;28;19924;-89
2023/04/15 14:36:06;;;;;;;;;;;15.40;67.30;;;;;;5003468;28;20020;-89
2023/04/15 14:38:37;;;;;;;;;;;15.40;67.40;;;;;;5004773;28;20152;-89
2023/04/15 14:41:06;;;;;;;;;;;15.40;67.50;;;;;;5005026;28;19914;-89
2023/04/15 14:43:32;;;;;;;;;;;15.40;67.50;;;;;;5004115;28;19992;-89
2023/04/15 14:45:58;;;;;;;;;;;15.40;67.60;;;;;;5005021;28;20371;-89
2023/04/15 14:48:24;;;;;;;;;;;15.40;67.80;;;;;;5004713;28;19953;-88
2023/04/15 14:50:49;;;;;;;;;;;15.40;67.90;;;;;;5006724;28;20211;-89
2023/04/15 14:53:15;;;;;;;;;;;15.40;68.10;;;;;;5007906;28;20212;-89
2023/04/15 14:55:41;;;;;;;;;;;15.40;68.00;;;;;;5004125;28;19909;-89
2023/04/15 14:58:08;;;;;;;;;;;15.40;68.10;;;;;;5005675;28;19909;-89
2023/04/15 15:00:34;;;;;;;;;;;15.40;68.20;;;;;;5006523;28;19917;-89
2023/04/15 15:03:00;;;;;;;;;;;15.40;68.20;;;;;;5006246;28;19983;-89
2023/04/15 15:05:26;;;;;;;;;;;15.40;68.40;;;;;;5005855;28;19976;-89
2023/04/15 15:07:51;;;;;;;;;;;15.40;68.60;;;;;;5006132;28;19910;-90
2023/04/15 15:10:17;;;;;;;;;;;15.30;68.60;;;;;;5005658;28;19910;-89
2023/04/15 15:12:42;;;;;;;;;;;15.30;68.70;;;;;;5006348;28;20284;-90
2023/04/15 15:15:08;;;;;;;;;;;15.30;68.80;;;;;;5006843;28;19982;-90
2023/04/15 15:17:34;;;;;;;;;;;15.30;69.00;;;;;;5003801;28;19914;-89
2023/04/15 15:20:00;;;;;;;;;;;15.30;69.20;;;;;;5005484;28;20162;-89
2023/04/15 15:22:26;;;;;;;;;;;15.30;69.30;;;;;;5004377;28;19920;-89
2023/04/15 15:24:52;;;;;;;;;;;15.30;69.50;;;;;;5007695;28;20431;-89
2023/04/15 15:27:17;;;;;;;;;;;15.30;69.70;;;;;;5008477;28;19917;-89